sensor_id;sensor_type;location;lat;lon;timestamp;P1;durP1;ratioP1;P2;durP2;ratioP2
39308;SDS011;26019;47.510;19.122;2022-10-20T00:16:59;9.23;;;4.30;;
39308;SDS011;26019;47.510;19.122;2022-10-20T00:27:01;9.23;;;5.10;;
39308;SDS011;26019;47.510;19.122;2022-10-20T00:37:03;5.90;;;4.53;;
39308;SDS011;26019;47.510;19.122;2022-10-20T00:47:06;8.35;;;4.40;;
39308;SDS011;26019;47.510;19.122;2022-10-20T00:57:12;12.52;;;4.70;;
39308;SDS011;26019;47.510;19.122;2022-10-20T01:07:14;6.43;;;4.30;;
39308;SDS011;26019;47.510;19.122;2022-10-20T01:17:22;9.63;;;4.47;;
39308;SDS011;26019;47.510;19.122;2022-10-20T01:27:44;6.28;;;3.83;;
39308;SDS011;26019;47.510;19.122;2022-10-20T01:48:14;8.40;;;3.80;;
39308;SDS011;26019;47.510;19.122;2022-10-20T02:19:03;8.48;;;3.90;;
39308;SDS011;26019;47.510;19.122;2022-10-20T02:29:10;8.73;;;4.13;;
39308;SDS011;26019;47.510;19.122;2022-10-20T02:39:16;9.25;;;4.40;;
39308;SDS011;26019;47.510;19.122;2022-10-20T02:49:17;9.05;;;4.20;;
39308;SDS011;26019;47.510;19.122;2022-10-20T02:59:20;9.83;;;5.20;;
39308;SDS011;26019;47.510;19.122;2022-10-20T03:09:22;14.63;;;6.93;;
39308;SDS011;26019;47.510;19.122;2022-10-20T03:19:24;18.85;;;7.82;;
39308;SDS011;26019;47.510;19.122;2022-10-20T03:39:33;11.98;;;6.60;;
39308;SDS011;26019;47.510;19.122;2022-10-20T03:49:34;14.75;;;7.60;;
39308;SDS011;26019;47.510;19.122;2022-10-20T03:59:36;11.35;;;8.23;;
39308;SDS011;26019;47.510;19.122;2022-10-20T04:09:38;12.88;;;9.02;;
39308;SDS011;26019;47.510;19.122;2022-10-20T04:19:39;15.55;;;9.77;;
39308;SDS011;26019;47.510;19.122;2022-10-20T04:29:41;22.42;;;9.90;;
39308;SDS011;26019;47.510;19.122;2022-10-20T04:39:43;26.05;;;9.70;;
39308;SDS011;26019;47.510;19.122;2022-10-20T04:49:45;13.30;;;8.90;;
39308;SDS011;26019;47.510;19.122;2022-10-20T04:59:46;21.08;;;10.70;;
39308;SDS011;26019;47.510;19.122;2022-10-20T05:09:48;30.83;;;11.30;;
39308;SDS011;26019;47.510;19.122;2022-10-20T05:19:50;28.88;;;12.75;;
39308;SDS011;26019;47.510;19.122;2022-10-20T05:29:53;24.90;;;11.80;;
39308;SDS011;26019;47.510;19.122;2022-10-20T05:39:55;25.48;;;12.50;;
39308;SDS011;26019;47.510;19.122;2022-10-20T05:49:57;29.60;;;12.07;;
39308;SDS011;26019;47.510;19.122;2022-10-20T05:59:58;29.33;;;12.75;;
39308;SDS011;26019;47.510;19.122;2022-10-20T06:10:00;27.33;;;12.85;;
39308;SDS011;26019;47.510;19.122;2022-10-20T06:20:01;23.85;;;12.75;;
39308;SDS011;26019;47.510;19.122;2022-10-20T06:30:03;20.45;;;11.43;;
39308;SDS011;26019;47.510;19.122;2022-10-20T06:40:06;22.45;;;12.15;;
39308;SDS011;26019;47.510;19.122;2022-10-20T06:50:08;21.33;;;10.48;;
39308;SDS011;26019;47.510;19.122;2022-10-20T07:00:09;16.80;;;9.35;;
39308;SDS011;26019;47.510;19.122;2022-10-20T07:10:11;21.35;;;11.50;;
39308;SDS011;26019;47.510;19.122;2022-10-20T07:20:13;17.48;;;9.20;;
39308;SDS011;26019;47.510;19.122;2022-10-20T07:30:15;15.80;;;8.45;;
39308;SDS011;26019;47.510;19.122;2022-10-20T07:40:24;10.27;;;6.83;;
39308;SDS011;26019;47.510;19.122;2022-10-20T07:50:30;12.43;;;5.22;;
39308;SDS011;26019;47.510;19.122;2022-10-20T08:00:32;8.48;;;4.72;;
39308;SDS011;26019;47.510;19.122;2022-10-20T08:10:34;9.38;;;4.45;;
39308;SDS011;26019;47.510;19.122;2022-10-20T08:20:35;8.18;;;4.88;;
39308;SDS011;26019;47.510;19.122;2022-10-20T08:30:42;6.10;;;4.78;;
39308;SDS011;26019;47.510;19.122;2022-10-20T08:40:44;13.00;;;5.77;;
39308;SDS011;26019;47.510;19.122;2022-10-20T08:50:46;10.33;;;5.23;;
39308;SDS011;26019;47.510;19.122;2022-10-20T09:00:57;10.35;;;4.53;;
39308;SDS011;26019;47.510;19.122;2022-10-20T09:11:01;9.85;;;4.78;;
39308;SDS011;26019;47.510;19.122;2022-10-20T09:31:24;9.52;;;3.63;;
39308;SDS011;26019;47.510;19.122;2022-10-20T09:41:33;9.87;;;4.10;;
39308;SDS011;26019;47.510;19.122;2022-10-20T09:51:36;6.63;;;3.70;;
39308;SDS011;26019;47.510;19.122;2022-10-20T10:01:51;5.82;;;4.03;;
39308;SDS011;26019;47.510;19.122;2022-10-20T10:11:57;9.52;;;7.47;;
39308;SDS011;26019;47.510;19.122;2022-10-20T10:22:14;4.95;;;3.50;;
39308;SDS011;26019;47.510;19.122;2022-10-20T10:32:18;6.22;;;5.10;;
39308;SDS011;26019;47.510;19.122;2022-10-20T10:42:31;7.55;;;4.13;;
39308;SDS011;26019;47.510;19.122;2022-10-20T11:34:15;6.97;;;4.32;;
39308;SDS011;26019;47.510;19.122;2022-10-20T11:44:26;4.18;;;3.47;;
39308;SDS011;26019;47.510;19.122;2022-10-20T12:15:25;6.45;;;2.65;;
39308;SDS011;26019;47.510;19.122;2022-10-20T12:25:39;9.45;;;5.25;;
39308;SDS011;26019;47.510;19.122;2022-10-20T12:46:08;8.70;;;2.30;;
39308;SDS011;26019;47.510;19.122;2022-10-20T12:56:18;7.53;;;2.13;;
39308;SDS011;26019;47.510;19.122;2022-10-20T13:16:30;7.15;;;3.80;;
39308;SDS011;26019;47.510;19.122;2022-10-20T13:26:42;5.55;;;2.40;;
39308;SDS011;26019;47.510;19.122;2022-10-20T13:47:05;5.90;;;2.05;;
39308;SDS011;26019;47.510;19.122;2022-10-20T13:57:31;10.00;;;2.72;;
39308;SDS011;26019;47.510;19.122;2022-10-20T14:07:39;3.65;;;2.17;;
39308;SDS011;26019;47.510;19.122;2022-10-20T14:17:53;10.88;;;3.08;;
39308;SDS011;26019;47.510;19.122;2022-10-20T14:27:56;7.45;;;3.97;;
39308;SDS011;26019;47.510;19.122;2022-10-20T14:38:02;5.38;;;2.40;;
39308;SDS011;26019;47.510;19.122;2022-10-20T15:08:53;4.50;;;2.50;;
39308;SDS011;26019;47.510;19.122;2022-10-20T15:19:10;7.35;;;2.35;;
39308;SDS011;26019;47.510;19.122;2022-10-20T15:29:26;6.45;;;3.70;;
39308;SDS011;26019;47.510;19.122;2022-10-20T15:39:30;25.45;;;10.73;;
39308;SDS011;26019;47.510;19.122;2022-10-20T15:49:32;12.23;;;6.85;;
39308;SDS011;26019;47.510;19.122;2022-10-20T15:59:35;16.00;;;7.05;;
39308;SDS011;26019;47.510;19.122;2022-10-20T16:09:37;7.82;;;4.40;;
39308;SDS011;26019;47.510;19.122;2022-10-20T16:19:39;8.63;;;4.40;;
39308;SDS011;26019;47.510;19.122;2022-10-20T16:29:41;19.15;;;5.07;;
39308;SDS011;26019;47.510;19.122;2022-10-20T16:39:47;11.18;;;4.78;;
39308;SDS011;26019;47.510;19.122;2022-10-20T17:00:01;15.10;;;6.50;;
39308;SDS011;26019;47.510;19.122;2022-10-20T17:10:04;14.63;;;7.00;;
39308;SDS011;26019;47.510;19.122;2022-10-20T17:20:07;15.83;;;6.87;;
39308;SDS011;26019;47.510;19.122;2022-10-20T17:30:09;15.53;;;7.17;;
39308;SDS011;26019;47.510;19.122;2022-10-20T17:40:12;21.03;;;8.40;;
39308;SDS011;26019;47.510;19.122;2022-10-20T17:50:14;12.48;;;7.80;;
39308;SDS011;26019;47.510;19.122;2022-10-20T18:00:18;16.67;;;7.60;;
39308;SDS011;26019;47.510;19.122;2022-10-20T18:10:43;16.85;;;7.82;;
39308;SDS011;26019;47.510;19.122;2022-10-20T18:20:52;14.52;;;10.63;;
39308;SDS011;26019;47.510;19.122;2022-10-20T18:31:08;22.15;;;12.40;;
39308;SDS011;26019;47.510;19.122;2022-10-20T18:41:15;22.70;;;13.48;;
39308;SDS011;26019;47.510;19.122;2022-10-20T18:51:20;28.83;;;14.77;;
39308;SDS011;26019;47.510;19.122;2022-10-20T19:01:24;38.63;;;17.07;;
39308;SDS011;26019;47.510;19.122;2022-10-20T19:11:31;28.52;;;17.40;;
39308;SDS011;26019;47.510;19.122;2022-10-20T19:21:38;29.00;;;17.83;;
39308;SDS011;26019;47.510;19.122;2022-10-20T19:31:42;32.42;;;19.38;;
39308;SDS011;26019;47.510;19.122;2022-10-20T19:41:50;35.72;;;22.33;;
39308;SDS011;26019;47.510;19.122;2022-10-20T19:51:54;34.73;;;21.80;;
39308;SDS011;26019;47.510;19.122;2022-10-20T20:12:14;35.25;;;19.92;;
39308;SDS011;26019;47.510;19.122;2022-10-20T20:32:19;35.72;;;17.67;;
39308;SDS011;26019;47.510;19.122;2022-10-20T20:42:21;34.42;;;20.38;;
39308;SDS011;26019;47.510;19.122;2022-10-20T20:52:22;27.45;;;17.33;;
39308;SDS011;26019;47.510;19.122;2022-10-20T21:02:24;32.25;;;18.90;;
39308;SDS011;26019;47.510;19.122;2022-10-20T21:12:26;31.60;;;19.27;;
39308;SDS011;26019;47.510;19.122;2022-10-20T21:22:32;30.52;;;19.02;;
39308;SDS011;26019;47.510;19.122;2022-10-20T21:32:33;29.08;;;19.10;;
39308;SDS011;26019;47.510;19.122;2022-10-20T21:42:35;31.88;;;19.67;;
39308;SDS011;26019;47.510;19.122;2022-10-20T21:52:38;27.95;;;17.27;;
39308;SDS011;26019;47.510;19.122;2022-10-20T22:02:41;28.05;;;19.00;;
39308;SDS011;26019;47.510;19.122;2022-10-20T22:12:43;26.95;;;15.98;;
39308;SDS011;26019;47.510;19.122;2022-10-20T22:22:44;35.25;;;20.48;;
39308;SDS011;26019;47.510;19.122;2022-10-20T22:32:49;26.05;;;16.30;;
39308;SDS011;26019;47.510;19.122;2022-10-20T22:42:51;28.80;;;17.20;;
39308;SDS011;26019;47.510;19.122;2022-10-20T22:52:53;28.40;;;16.70;;
39308;SDS011;26019;47.510;19.122;2022-10-20T23:02:56;24.10;;;16.60;;
39308;SDS011;26019;47.510;19.122;2022-10-20T23:13:02;25.10;;;16.38;;
39308;SDS011;26019;47.510;19.122;2022-10-20T23:23:04;32.60;;;20.42;;
39308;SDS011;26019;47.510;19.122;2022-10-20T23:33:05;33.25;;;21.25;;
39308;SDS011;26019;47.510;19.122;2022-10-20T23:43:07;42.30;;;22.35;;
